createdAt,value
2023-05-04T00:02:03.762Z,5.30
2023-05-04T00:04:30.433Z,5.47
2023-05-04T00:06:57.095Z,5.30
2023-05-04T00:09:23.735Z,4.75
2023-05-04T00:11:50.363Z,5.63
2023-05-04T00:14:17.096Z,5.60
2023-05-04T00:16:44.331Z,4.82
2023-05-04T00:19:11.206Z,4.55
2023-05-04T00:21:38.008Z,5.13
2023-05-04T00:24:05.053Z,4.80
2023-05-04T00:26:31.675Z,5.10
2023-05-04T00:28:58.366Z,5.60
2023-05-04T00:31:25.035Z,4.82
2023-05-04T00:33:51.720Z,5.57
2023-05-04T00:36:18.895Z,4.82
2023-05-04T00:38:54.762Z,4.55
2023-05-04T00:41:22.297Z,5.68
2023-05-04T00:43:49.204Z,4.95
2023-05-04T00:46:16.045Z,4.93
2023-05-04T00:48:45.923Z,5.35
2023-05-04T00:51:14.775Z,5.28
2023-05-04T00:53:41.736Z,5.30
2023-05-04T00:56:09.049Z,5.60
2023-05-04T00:58:35.941Z,5.25
2023-05-04T01:01:04.071Z,5.40
2023-05-04T01:03:31.911Z,5.20
2023-05-04T01:06:16.295Z,5.07
2023-05-04T01:08:50.781Z,5.13
2023-05-04T01:11:32.214Z,5.00
2023-05-04T01:14:01.895Z,5.10
2023-05-04T01:16:29.643Z,5.88
2023-05-04T01:18:56.378Z,5.47
2023-05-04T01:21:23.087Z,5.72
2023-05-04T01:23:50.678Z,5.70
2023-05-04T01:26:25.354Z,5.40
2023-05-04T01:29:22.187Z,5.82
2023-05-04T01:31:50.932Z,5.45
2023-05-04T01:34:18.846Z,5.93
2023-05-04T01:36:46.267Z,6.22
2023-05-04T01:39:12.942Z,5.60
2023-05-04T01:41:39.625Z,6.65
2023-05-04T01:44:06.304Z,6.00
2023-05-04T01:46:33.072Z,6.28
2023-05-04T01:48:59.867Z,6.35
2023-05-04T01:51:26.736Z,6.35
2023-05-04T01:53:53.337Z,5.70
2023-05-04T01:56:20.504Z,6.80
2023-05-04T01:58:47.229Z,6.10
2023-05-04T02:01:13.972Z,6.70
2023-05-04T02:03:41.093Z,5.95
2023-05-04T02:06:09.702Z,6.00
2023-05-04T02:08:36.369Z,5.93
2023-05-04T02:11:03.070Z,6.00
2023-05-04T02:13:29.738Z,6.82
2023-05-04T02:15:56.414Z,6.00
2023-05-04T02:18:23.089Z,6.18
2023-05-04T02:20:49.888Z,6.00
2023-05-04T02:23:16.654Z,6.05
2023-05-04T02:25:43.363Z,6.55
2023-05-04T02:28:10.126Z,5.97
2023-05-04T02:30:37.368Z,6.18
2023-05-04T02:33:04.590Z,6.07
2023-05-04T02:35:31.429Z,6.35
2023-05-04T02:37:58.120Z,6.88
2023-05-04T02:40:25.014Z,6.65
2023-05-04T02:42:51.943Z,6.47
2023-05-04T02:45:18.726Z,6.13
2023-05-04T02:47:45.525Z,6.30
2023-05-04T02:50:12.203Z,6.80
2023-05-04T02:52:39.079Z,7.07
2023-05-04T02:55:06.751Z,6.20
2023-05-04T02:57:33.765Z,6.47
2023-05-04T03:00:00.485Z,6.43
2023-05-04T03:02:27.267Z,6.45
2023-05-04T03:04:54.026Z,6.50
2023-05-04T03:07:20.822Z,7.32
2023-05-04T03:09:48.036Z,7.20
2023-05-04T03:12:14.855Z,7.65
2023-05-04T03:14:42.460Z,6.80
2023-05-04T03:17:09.101Z,7.57
2023-05-04T03:19:36.685Z,7.93
2023-05-04T03:22:04.176Z,8.13
2023-05-04T03:24:30.991Z,7.78
2023-05-04T03:26:57.802Z,8.05
2023-05-04T03:29:24.887Z,7.40
2023-05-04T03:31:52.359Z,7.95
2023-05-04T03:34:21.719Z,8.27
2023-05-04T03:36:53.175Z,8.20
2023-05-04T03:39:19.803Z,8.05
2023-05-04T03:41:46.635Z,8.05
2023-05-04T03:44:13.444Z,7.55
2023-05-04T03:46:40.289Z,7.82
2023-05-04T03:49:07.047Z,7.57
2023-05-04T03:51:33.704Z,8.35
2023-05-04T03:54:01.482Z,7.88
2023-05-04T03:56:28.340Z,7.80
2023-05-04T03:58:57.072Z,8.75
2023-05-04T04:01:27.603Z,8.93
2023-05-04T04:03:54.517Z,8.02
2023-05-04T04:06:22.549Z,8.77
2023-05-04T04:08:49.353Z,9.00
2023-05-04T04:11:16.056Z,9.05
2023-05-04T04:13:42.702Z,8.60
2023-05-04T04:16:09.401Z,8.80
2023-05-04T04:18:36.105Z,8.98
2023-05-04T04:21:03.513Z,9.90
2023-05-04T04:23:30.155Z,10.00
2023-05-04T04:25:56.816Z,9.63
2023-05-04T04:28:23.488Z,9.80
2023-05-04T04:30:50.117Z,9.48
2023-05-04T04:33:17.117Z,9.60
2023-05-04T04:35:43.966Z,9.60
2023-05-04T04:38:10.617Z,9.25
2023-05-04T04:40:37.261Z,9.35
2023-05-04T04:43:04.853Z,9.07
2023-05-04T04:45:33.185Z,9.25
2023-05-04T04:48:01.082Z,9.73
2023-05-04T04:50:29.188Z,10.55
2023-05-04T04:52:56.239Z,10.00
2023-05-04T04:55:25.848Z,9.48
2023-05-04T04:57:53.063Z,9.68
2023-05-04T05:00:19.990Z,9.70
2023-05-04T05:02:46.692Z,9.20
2023-05-04T05:05:13.578Z,9.57
2023-05-04T05:07:40.423Z,10.07
2023-05-04T05:10:08.619Z,9.10
2023-05-04T05:12:35.844Z,9.70
2023-05-04T05:15:04.497Z,10.35
2023-05-04T05:17:31.479Z,9.85
2023-05-04T05:19:58.196Z,9.82
2023-05-04T05:22:25.115Z,9.57
2023-05-04T05:24:51.888Z,9.82
2023-05-04T05:27:18.495Z,10.30
2023-05-04T05:29:45.690Z,9.98
2023-05-04T05:32:12.338Z,9.43
2023-05-04T05:34:39.127Z,10.25
2023-05-04T05:37:05.859Z,9.27
2023-05-04T05:39:32.467Z,10.73
2023-05-04T05:41:59.342Z,9.85
2023-05-04T05:44:26.169Z,11.18
2023-05-04T05:46:52.768Z,10.02
2023-05-04T05:49:19.469Z,10.98
2023-05-04T05:51:46.217Z,10.27
2023-05-04T05:54:12.946Z,10.48
2023-05-04T05:56:39.584Z,9.43
2023-05-04T05:59:06.509Z,10.13
2023-05-04T06:01:33.333Z,10.45
2023-05-04T06:04:00.334Z,9.93
2023-05-04T06:06:27.243Z,9.98
2023-05-04T06:08:53.849Z,10.43
2023-05-04T06:11:21.313Z,10.27
2023-05-04T06:13:47.952Z,10.00
2023-05-04T06:16:14.770Z,10.05
2023-05-04T06:18:41.516Z,9.82
2023-05-04T06:21:08.838Z,9.95
2023-05-04T06:23:35.507Z,9.30
2023-05-04T06:26:02.501Z,9.35
2023-05-04T06:28:29.103Z,9.27
2023-05-04T06:30:55.757Z,9.73
2023-05-04T06:33:22.410Z,10.25
2023-05-04T06:35:49.122Z,10.23
2023-05-04T06:38:15.815Z,9.13
2023-05-04T06:40:42.472Z,9.98
2023-05-04T06:43:09.131Z,9.23
2023-05-04T06:45:36.420Z,9.10
2023-05-04T06:48:04.300Z,9.60
2023-05-04T06:50:33.123Z,7.50
2023-05-04T06:53:04.499Z,9.93
2023-05-04T06:55:31.805Z,7.93
2023-05-04T06:57:58.558Z,7.50
2023-05-04T07:00:25.661Z,9.52
2023-05-04T07:02:53.695Z,8.75
2023-05-04T07:05:23.913Z,8.52
2023-05-04T07:07:51.382Z,10.05
2023-05-04T07:10:19.583Z,9.55
2023-05-04T07:12:46.990Z,8.75
2023-05-04T07:15:14.063Z,8.68
2023-05-04T07:17:41.086Z,9.27
2023-05-04T07:20:08.501Z,8.88
2023-05-04T07:22:35.418Z,8.27
2023-05-04T07:25:02.242Z,9.13
2023-05-04T07:27:29.013Z,8.52
2023-05-04T07:32:23.317Z,8.27
2023-05-04T07:34:50.180Z,7.57
2023-05-04T07:37:16.944Z,6.97
2023-05-04T07:39:43.705Z,7.28
2023-05-04T07:42:11.727Z,7.50
2023-05-04T07:44:38.449Z,7.72
2023-05-04T07:47:05.425Z,7.40
2023-05-04T07:49:32.085Z,7.55
2023-05-04T07:51:58.939Z,6.88
2023-05-04T07:54:25.808Z,7.25
2023-05-04T07:56:52.420Z,6.50
2023-05-04T07:59:19.130Z,7.05
2023-05-04T08:01:46.557Z,7.00
2023-05-04T08:04:13.452Z,6.30
2023-05-04T08:06:40.460Z,7.63
2023-05-04T08:09:07.106Z,6.75
2023-05-04T08:11:37.909Z,6.95
2023-05-04T08:14:05.272Z,6.80
2023-05-04T08:16:32.421Z,5.97
2023-05-04T08:19:00.069Z,6.65
2023-05-04T08:21:27.377Z,7.25
2023-05-04T08:23:54.450Z,6.43
2023-05-04T08:26:21.201Z,5.82
2023-05-04T08:28:48.461Z,7.57
2023-05-04T08:31:17.002Z,6.57
2023-05-04T08:33:43.753Z,7.90
2023-05-04T08:36:10.813Z,6.72
2023-05-04T08:38:37.494Z,7.15
2023-05-04T08:41:05.223Z,6.25
2023-05-04T08:43:35.835Z,6.28
2023-05-04T08:46:04.025Z,7.13
2023-05-04T08:48:34.887Z,7.78
2023-05-04T08:51:04.372Z,6.55
2023-05-04T08:53:32.785Z,6.82
2023-05-04T08:56:04.217Z,7.10
2023-05-04T08:58:32.985Z,6.32
2023-05-04T09:01:01.567Z,6.32
2023-05-04T09:03:30.339Z,7.50
2023-05-04T09:05:58.349Z,6.80
2023-05-04T09:08:25.101Z,6.32
2023-05-04T09:10:51.819Z,6.40
2023-05-04T09:13:18.651Z,7.07
2023-05-04T09:15:58.884Z,6.47
2023-05-04T09:18:43.991Z,6.65
2023-05-04T09:21:11.712Z,5.85
2023-05-04T09:23:49.263Z,6.57
2023-05-04T09:26:35.155Z,7.43
2023-05-04T09:29:15.400Z,6.32
2023-05-04T09:31:47.378Z,6.93
2023-05-04T09:36:43.936Z,6.90
2023-05-04T09:39:14.869Z,6.55
2023-05-04T09:41:42.702Z,7.22
2023-05-04T09:44:21.379Z,7.22
2023-05-04T09:47:00.489Z,6.97
2023-05-04T09:49:34.699Z,6.97
2023-05-04T09:52:02.973Z,6.50
2023-05-04T09:54:41.274Z,6.38
2023-05-04T09:57:15.562Z,6.38
2023-05-04T09:59:43.514Z,6.70
2023-05-04T10:02:22.150Z,6.85
2023-05-04T10:04:57.290Z,7.15
2023-05-04T10:07:24.925Z,7.25
2023-05-04T10:09:53.301Z,7.15
2023-05-04T10:12:20.007Z,7.10
2023-05-04T10:14:47.234Z,6.20
2023-05-04T10:18:07.440Z,7.13
2023-05-04T10:20:49.357Z,7.20
2023-05-04T10:23:58.193Z,6.35
2023-05-04T10:26:59.527Z,6.28
2023-05-04T10:29:33.316Z,5.80
2023-05-04T10:32:00.698Z,6.80
2023-05-04T10:34:30.111Z,6.50
2023-05-04T10:36:58.224Z,6.47
2023-05-04T10:39:27.976Z,6.18
2023-05-04T10:42:04.093Z,7.07
2023-05-04T10:44:32.869Z,6.72
2023-05-04T10:47:05.573Z,5.55
2023-05-04T10:49:33.980Z,5.82
2023-05-04T10:52:16.254Z,6.35
2023-05-04T10:54:43.681Z,6.53
2023-05-04T10:57:12.633Z,6.30
2023-05-04T10:59:41.321Z,6.80
2023-05-04T11:02:08.501Z,6.22
2023-05-04T11:04:35.820Z,5.50
2023-05-04T11:07:05.499Z,6.57
2023-05-04T11:09:42.627Z,6.45
2023-05-04T11:12:10.805Z,6.15
2023-05-04T11:14:43.270Z,6.65
2023-05-04T11:17:27.555Z,5.95
2023-05-04T11:19:55.246Z,6.50
2023-05-04T11:22:22.116Z,6.43
2023-05-04T11:24:49.114Z,6.13
2023-05-04T11:27:28.578Z,6.20
2023-05-04T11:30:03.571Z,6.32
2023-05-04T11:32:40.769Z,6.03
2023-05-04T11:35:09.599Z,5.88
2023-05-04T11:37:41.347Z,6.38
2023-05-04T11:42:36.363Z,6.03
2023-05-04T11:45:03.626Z,5.50
2023-05-04T11:47:30.605Z,5.57
2023-05-04T11:49:57.292Z,5.68
2023-05-04T11:52:25.798Z,5.53
2023-05-04T11:54:57.292Z,6.00
2023-05-04T11:57:24.009Z,5.68
2023-05-04T11:59:50.910Z,5.47
2023-05-04T12:02:18.202Z,5.80
2023-05-04T12:04:44.872Z,6.18
2023-05-04T12:07:12.691Z,5.57
2023-05-04T12:09:49.461Z,5.95
2023-05-04T12:12:21.328Z,4.78
2023-05-04T12:17:20.566Z,5.32
2023-05-04T12:19:55.370Z,5.72
2023-05-04T12:22:29.470Z,5.15
2023-05-04T12:24:58.749Z,6.22
2023-05-04T12:27:28.991Z,5.55
2023-05-04T12:29:55.830Z,5.55
2023-05-04T12:32:22.522Z,5.40
2023-05-04T12:34:49.388Z,4.68
2023-05-04T12:37:16.225Z,4.72
2023-05-04T12:39:43.052Z,4.80
2023-05-04T12:42:09.741Z,4.55
2023-05-04T12:44:36.447Z,4.30
2023-05-04T12:47:03.382Z,4.97
2023-05-04T12:49:29.990Z,4.60
2023-05-04T12:51:56.684Z,4.32
2023-05-04T12:54:23.402Z,4.30
2023-05-04T12:56:50.029Z,4.20
2023-05-04T12:59:16.718Z,3.88
2023-05-04T13:01:43.463Z,4.00
2023-05-04T13:04:10.283Z,3.58
2023-05-04T13:06:37.003Z,4.45
2023-05-04T13:09:06.000Z,4.13
2023-05-04T13:11:32.856Z,4.57
2023-05-04T13:13:59.765Z,4.80
2023-05-04T13:16:28.180Z,3.58
2023-05-04T13:18:55.596Z,3.90
2023-05-04T13:21:22.508Z,3.70
2023-05-04T13:23:49.451Z,3.78
2023-05-04T13:26:16.184Z,4.40
2023-05-04T13:28:43.178Z,3.97
2023-05-04T13:31:10.533Z,3.83
2023-05-04T13:33:40.276Z,4.50
2023-05-04T13:36:07.207Z,4.60
2023-05-04T13:38:33.858Z,4.22
2023-05-04T13:41:00.560Z,4.95
2023-05-04T13:43:27.983Z,4.53
2023-05-04T13:45:57.065Z,4.40
2023-05-04T13:48:25.757Z,3.97
2023-05-04T13:50:52.785Z,3.65
2023-05-04T13:53:19.449Z,3.90
2023-05-04T13:55:46.693Z,4.10
2023-05-04T13:58:13.357Z,4.32
2023-05-04T14:00:40.133Z,4.00
2023-05-04T14:03:06.937Z,4.32
2023-05-04T14:05:35.601Z,4.65
2023-05-04T14:08:02.927Z,4.32
2023-05-04T14:10:29.599Z,4.32
2023-05-04T14:12:56.410Z,4.07
2023-05-04T14:15:23.249Z,4.55
2023-05-04T14:17:50.442Z,4.28
2023-05-04T14:20:17.349Z,3.92
2023-05-04T14:22:44.392Z,4.55
2023-05-04T14:25:11.286Z,4.85
2023-05-04T14:27:37.974Z,4.47
2023-05-04T14:30:05.262Z,4.38
2023-05-04T14:32:32.008Z,3.85
2023-05-04T14:35:10.240Z,4.90
2023-05-04T14:37:39.607Z,3.88
2023-05-04T14:40:13.304Z,5.32
2023-05-04T14:42:39.934Z,4.82
2023-05-04T14:45:08.304Z,3.40
2023-05-04T14:47:35.471Z,4.30
2023-05-04T14:50:02.364Z,4.47
2023-05-04T14:52:29.159Z,4.53
2023-05-04T14:54:56.204Z,4.45
2023-05-04T14:57:22.966Z,4.05
2023-05-04T14:59:49.590Z,4.15
2023-05-04T15:02:17.685Z,4.28
2023-05-04T15:04:45.295Z,3.85
2023-05-04T15:07:14.375Z,4.43
2023-05-04T15:09:41.041Z,3.60
2023-05-04T15:12:08.722Z,3.50
2023-05-04T15:14:38.712Z,3.95
2023-05-04T15:17:05.461Z,4.32
2023-05-04T15:19:32.125Z,4.05
2023-05-04T15:21:58.751Z,3.92
2023-05-04T15:24:25.492Z,4.40
2023-05-04T15:26:52.182Z,4.72
2023-05-04T15:29:18.873Z,4.65
2023-05-04T15:31:45.683Z,4.15
2023-05-04T15:34:12.409Z,3.80
2023-05-04T15:36:39.059Z,3.92
2023-05-04T15:39:08.189Z,3.45
2023-05-04T15:41:35.620Z,3.55
2023-05-04T15:44:03.078Z,3.70
2023-05-04T15:46:29.785Z,3.65
2023-05-04T15:48:56.536Z,4.13
2023-05-04T15:51:23.218Z,4.38
2023-05-04T15:53:51.771Z,4.30
2023-05-04T15:56:18.488Z,3.63
2023-05-04T15:58:45.340Z,3.78
2023-05-04T16:01:14.582Z,3.97
2023-05-04T16:03:43.376Z,3.83
2023-05-04T16:06:10.139Z,3.90
2023-05-04T16:08:36.998Z,3.53
2023-05-04T16:11:04.480Z,4.15
2023-05-04T16:13:31.433Z,4.45
2023-05-04T16:15:58.169Z,4.90
2023-05-04T16:18:24.807Z,4.07
2023-05-04T16:20:51.676Z,3.80
2023-05-04T16:23:18.273Z,4.47
2023-05-04T16:25:44.960Z,4.10
2023-05-04T16:28:11.758Z,4.72
2023-05-04T16:30:38.507Z,3.85
2023-05-04T16:33:05.486Z,4.05
2023-05-04T16:35:32.288Z,4.35
2023-05-04T16:37:59.283Z,4.88
2023-05-04T16:40:26.696Z,4.28
2023-05-04T16:42:53.362Z,4.40
2023-05-04T16:45:20.597Z,4.30
2023-05-04T16:47:47.341Z,4.40
2023-05-04T16:50:14.474Z,3.95
2023-05-04T16:52:41.666Z,4.10
2023-05-04T16:55:11.796Z,4.63
2023-05-04T16:57:39.168Z,4.20
2023-05-04T17:00:07.090Z,4.70
2023-05-04T17:02:34.245Z,4.50
2023-05-04T17:05:01.185Z,4.65
2023-05-04T17:07:28.512Z,4.32
2023-05-04T17:09:55.190Z,3.95
2023-05-04T17:12:23.387Z,5.25
2023-05-04T17:14:50.204Z,5.20
2023-05-04T17:17:17.097Z,4.13
2023-05-04T17:19:43.727Z,4.30
2023-05-04T17:22:11.256Z,4.72
2023-05-04T17:24:38.056Z,4.60
2023-05-04T17:27:04.787Z,4.22
2023-05-04T17:29:31.568Z,4.47
2023-05-04T17:31:58.295Z,4.20
2023-05-04T17:34:25.107Z,5.03
2023-05-04T17:36:51.853Z,4.57
2023-05-04T17:39:18.819Z,3.92
2023-05-04T17:41:49.061Z,5.05
2023-05-04T17:44:16.454Z,4.47
2023-05-04T17:46:43.732Z,4.38
2023-05-04T17:49:10.686Z,4.63
2023-05-04T17:51:37.461Z,3.83
2023-05-04T17:54:04.107Z,5.03
2023-05-04T17:56:30.779Z,6.25
2023-05-04T17:58:57.469Z,4.50
2023-05-04T18:01:24.175Z,6.93
2023-05-04T18:03:50.989Z,4.85
2023-05-04T18:06:17.717Z,4.13
2023-05-04T18:08:44.508Z,4.72
2023-05-04T18:11:12.072Z,4.47
2023-05-04T18:13:38.712Z,4.20
2023-05-04T18:16:05.630Z,4.50
2023-05-04T18:18:32.290Z,4.90
2023-05-04T18:21:00.753Z,4.85
2023-05-04T18:23:27.489Z,4.80
2023-05-04T18:25:54.142Z,4.32
2023-05-04T18:28:20.774Z,3.97
2023-05-04T18:30:47.610Z,4.50
2023-05-04T18:33:14.258Z,5.00
2023-05-04T18:35:41.023Z,4.35
2023-05-04T18:38:07.691Z,5.03
2023-05-04T18:40:34.357Z,5.28
2023-05-04T18:43:00.958Z,5.28
2023-05-04T18:45:27.994Z,5.35
2023-05-04T18:47:54.764Z,5.15
2023-05-04T18:50:21.569Z,5.55
2023-05-04T18:52:48.188Z,5.13
2023-05-04T18:55:14.842Z,4.95
2023-05-04T18:57:41.568Z,5.07
2023-05-04T19:00:09.385Z,4.25
2023-05-04T19:02:36.793Z,5.00
2023-05-04T19:05:03.671Z,5.13
2023-05-04T19:07:30.348Z,5.40
2023-05-04T19:09:56.984Z,5.50
2023-05-04T19:12:23.996Z,5.40
2023-05-04T19:14:51.230Z,5.35
2023-05-04T19:17:18.615Z,5.28
2023-05-04T19:19:45.350Z,4.60
2023-05-04T19:22:13.388Z,4.60
2023-05-04T19:24:40.045Z,4.43
2023-05-04T19:27:07.410Z,4.60
2023-05-04T19:29:34.169Z,5.47
2023-05-04T19:32:05.676Z,4.78
2023-05-04T19:34:35.411Z,5.25
2023-05-04T19:37:02.192Z,4.93
2023-05-04T19:39:29.438Z,4.55
2023-05-04T19:41:56.104Z,4.65
2023-05-04T19:44:22.831Z,4.60
2023-05-04T19:46:51.625Z,4.47
2023-05-04T19:49:18.368Z,3.78
2023-05-04T19:51:44.971Z,4.63
2023-05-04T19:54:11.857Z,4.05
2023-05-04T19:56:38.511Z,4.13
2023-05-04T19:59:05.249Z,4.53
2023-05-04T20:01:31.867Z,4.75
2023-05-04T20:03:58.506Z,4.03
2023-05-04T20:06:25.127Z,4.50
2023-05-04T20:08:51.840Z,4.55
2023-05-04T20:11:18.587Z,4.50
2023-05-04T20:13:45.598Z,4.43
2023-05-04T20:16:13.144Z,4.68
2023-05-04T20:18:39.856Z,4.45
2023-05-04T20:21:06.640Z,4.53
2023-05-04T20:23:33.280Z,4.28
2023-05-04T20:25:59.969Z,3.75
2023-05-04T20:28:26.688Z,4.53
2023-05-04T20:30:53.334Z,4.57
2023-05-04T20:33:19.983Z,4.55
2023-05-04T20:35:46.618Z,4.70
2023-05-04T20:38:13.603Z,4.90
2023-05-04T20:40:40.230Z,4.72
2023-05-04T20:43:06.838Z,4.85
2023-05-04T20:45:34.304Z,4.50
2023-05-04T20:48:01.379Z,5.00
2023-05-04T20:50:28.020Z,4.45
2023-05-04T20:52:54.784Z,4.80
2023-05-04T20:55:21.537Z,5.13
2023-05-04T20:57:48.261Z,5.07
2023-05-04T21:00:15.355Z,4.85
2023-05-04T21:02:42.620Z,4.65
2023-05-04T21:05:09.506Z,4.85
2023-05-04T21:07:36.331Z,4.68
2023-05-04T21:10:03.666Z,5.60
2023-05-04T21:12:30.378Z,4.88
2023-05-04T21:14:57.097Z,4.97
2023-05-04T21:17:25.556Z,4.75
2023-05-04T21:19:52.264Z,4.63
2023-05-04T21:22:18.936Z,4.70
2023-05-04T21:24:46.692Z,4.43
2023-05-04T21:27:14.078Z,4.35
2023-05-04T21:29:40.760Z,4.68
2023-05-04T21:32:07.406Z,4.55
2023-05-04T21:34:34.102Z,4.60
2023-05-04T21:37:00.882Z,4.55
2023-05-04T21:39:27.506Z,4.82
2023-05-04T21:41:54.203Z,4.68
2023-05-04T21:44:20.813Z,5.05
2023-05-04T21:46:47.462Z,5.32
2023-05-04T21:49:14.218Z,5.03
2023-05-04T21:51:42.626Z,4.80
2023-05-04T21:54:09.239Z,4.45
2023-05-04T21:56:35.917Z,4.35
2023-05-04T21:59:03.118Z,4.13
2023-05-04T22:01:29.826Z,4.18
2023-05-04T22:03:56.834Z,4.90
2023-05-04T22:06:24.694Z,4.63
2023-05-04T22:08:51.717Z,4.85
2023-05-04T22:11:18.595Z,5.07
2023-05-04T22:13:45.292Z,4.60
2023-05-04T22:16:12.158Z,4.93
2023-05-04T22:18:38.817Z,4.60
2023-05-04T22:21:05.684Z,4.57
2023-05-04T22:23:32.697Z,4.38
2023-05-04T22:25:59.375Z,5.22
2023-05-04T22:28:26.420Z,4.55
2023-05-04T22:30:53.160Z,4.45
2023-05-04T22:33:20.017Z,5.05
2023-05-04T22:35:46.742Z,4.95
2023-05-04T22:38:14.649Z,5.03
2023-05-04T22:40:43.021Z,5.13
2023-05-04T22:43:11.788Z,5.05
2023-05-04T22:45:39.098Z,4.35
2023-05-04T22:48:05.854Z,4.88
2023-05-04T22:50:32.644Z,5.15
2023-05-04T22:52:59.346Z,5.35
2023-05-04T22:55:26.053Z,4.72
2023-05-04T22:57:52.785Z,4.82
2023-05-04T23:00:20.144Z,4.72
2023-05-04T23:02:47.235Z,4.97
2023-05-04T23:05:13.935Z,4.30
2023-05-04T23:07:40.883Z,4.45
2023-05-04T23:10:08.187Z,5.20
2023-05-04T23:12:35.054Z,4.80
2023-05-04T23:15:01.839Z,4.93
2023-05-04T23:17:28.530Z,5.53
2023-05-04T23:19:55.198Z,4.47
2023-05-04T23:22:21.845Z,4.55
2023-05-04T23:24:48.525Z,4.82
2023-05-04T23:27:15.240Z,4.60
2023-05-04T23:29:41.875Z,5.13
2023-05-04T23:32:08.647Z,4.68
2023-05-04T23:34:35.278Z,4.80
2023-05-04T23:37:01.977Z,4.90
2023-05-04T23:39:28.819Z,5.00
2023-05-04T23:41:55.581Z,5.18
2023-05-04T23:44:22.464Z,5.25
2023-05-04T23:46:49.220Z,4.75
2023-05-04T23:49:16.542Z,5.70
2023-05-04T23:51:43.678Z,4.85
2023-05-04T23:54:10.571Z,4.72
2023-05-04T23:56:37.203Z,5.72
2023-05-04T23:59:04.016Z,5.35
